Time;durP1;ratioP1;P1;durP2;ratioP2;P2;SDS_P1;SDS_P2;PMS_P1;PMS_P2;Temp;Humidity;BMP_temperature;BMP_pressure;BME280_temperature;BME280_humidity;BME280_pressure;Samples;Min_cycle;Max_cycle;Signal;HPM_P1;HPM_P2
2022/03/18 00:02:21;;;;;;;55.13;34.45;;;7.00;99.90;;;;;;5070048;28;20036;-74
2022/03/18 00:04:51;;;;;;;54.67;34.13;;;7.00;99.90;;;;;;5071023;28;20025;-75
2022/03/18 00:07:18;;;;;;;51.22;32.42;;;6.90;99.90;;;;;;5063668;28;20056;-75
2022/03/18 00:09:44;;;;;;;49.97;31.42;;;6.90;99.90;;;;;;5033543;28;20104;-75
2022/03/18 00:12:11;;;;;;;44.88;29.85;;;6.90;99.90;;;;;;5033123;28;20455;-75
2022/03/18 00:14:40;;;;;;;42.00;27.77;;;7.00;99.90;;;;;;5050443;28;20060;-75
2022/03/18 00:17:10;;;;;;;46.28;28.52;;;7.00;99.90;;;;;;5054994;28;20077;-75
2022/03/18 00:19:38;;;;;;;45.30;28.85;;;7.00;99.90;;;;;;5070460;28;20037;-75
2022/03/18 00:22:04;;;;;;;43.88;29.10;;;7.10;99.90;;;;;;5071115;28;20036;-75
2022/03/18 00:24:32;;;;;;;41.03;27.33;;;7.00;99.90;;;;;;5070316;28;20025;-75
2022/03/18 00:27:04;;;;;;;43.15;28.63;;;7.00;99.90;;;;;;5070601;28;20103;-75
2022/03/18 00:29:31;;;;;;;41.28;27.25;;;7.00;99.90;;;;;;5053828;28;20393;-74
2022/03/18 00:31:57;;;;;;;38.88;27.05;;;7.00;99.90;;;;;;5054339;28;20048;-75
2022/03/18 00:34:22;;;;;;;42.55;28.27;;;7.00;99.90;;;;;;5053500;28;20390;-75
2022/03/18 00:36:48;;;;;;;39.65;26.77;;;6.90;99.90;;;;;;5069518;28;20036;-74
2022/03/18 00:39:14;;;;;;;41.38;27.25;;;6.90;99.90;;;;;;5055931;28;20033;-76
2022/03/18 00:41:41;;;;;;;44.72;28.17;;;6.90;99.90;;;;;;5056628;28;20378;-75
2022/03/18 00:44:07;;;;;;;41.17;27.58;;;6.80;99.90;;;;;;5068387;28;20029;-74
2022/03/18 00:46:34;;;;;;;38.72;25.63;;;6.70;99.90;;;;;;5053971;28;20029;-75
2022/03/18 00:54:28;;;;;;;38.22;25.63;;;7.00;99.90;;;;;;5053228;28;20073;-75
2022/03/18 00:56:53;;;;;;;38.08;25.58;;;6.90;99.90;;;;;;5053899;28;20394;-75
2022/03/18 00:59:19;;;;;;;41.85;26.92;;;6.90;99.90;;;;;;5073635;28;20036;-75
2022/03/18 01:01:45;;;;;;;35.88;24.95;;;6.90;99.90;;;;;;5074228;28;20032;-74
2022/03/18 01:04:10;;;;;;;38.63;25.73;;;6.90;99.90;;;;;;5074181;28;20545;-75
2022/03/18 01:06:36;;;;;;;38.55;26.05;;;6.80;99.90;;;;;;5073472;28;20858;-76
2022/03/18 01:09:03;;;;;;;36.08;23.73;;;6.90;99.90;;;;;;5055848;28;20040;-75
2022/03/18 01:11:31;;;;;;;37.35;23.98;;;6.90;99.90;;;;;;5053021;28;20033;-75
2022/03/18 01:13:57;;;;;;;36.88;25.65;;;7.00;99.90;;;;;;5072918;28;20501;-75
2022/03/18 01:16:22;;;;;;;33.47;24.13;;;6.90;99.90;;;;;;5072793;28;20028;-76
2022/03/18 01:18:48;;;;;;;38.00;25.45;;;6.80;99.90;;;;;;5057726;28;20053;-75
2022/03/18 01:21:14;;;;;;;34.47;24.85;;;6.80;99.90;;;;;;5053030;28;20064;-77
2022/03/18 01:23:39;;;;;;;39.70;26.00;;;6.80;99.90;;;;;;5053059;28;20036;-75
2022/03/18 01:26:05;;;;;;;36.15;23.52;;;6.80;99.90;;;;;;5053449;28;20051;-75
2022/03/18 01:28:31;;;;;;;39.40;25.27;;;6.80;99.90;;;;;;5065085;28;20062;-76
2022/03/18 01:30:57;;;;;;;35.08;24.80;;;6.80;99.90;;;;;;5073407;28;20064;-75
2022/03/18 01:33:23;;;;;;;34.22;23.60;;;6.90;99.90;;;;;;5071775;28;20041;-75
2022/03/18 01:35:48;;;;;;;36.22;22.98;;;6.90;99.90;;;;;;5072995;28;20028;-75
2022/03/18 01:38:14;;;;;;;34.75;24.08;;;6.90;99.90;;;;;;5056840;28;20032;-77
2022/03/18 01:40:40;;;;;;;34.25;23.23;;;7.00;99.90;;;;;;5071679;28;20028;-75
2022/03/18 01:43:09;;;;;;;35.83;24.02;;;6.90;99.90;;;;;;5072942;28;20389;-76
2022/03/18 01:45:35;;;;;;;36.60;23.58;;;6.90;99.90;;;;;;5053692;28;20066;-75
2022/03/18 01:48:02;;;;;;;31.65;22.60;;;6.90;99.90;;;;;;5064777;28;20106;-74
2022/03/18 01:50:28;;;;;;;32.05;22.98;;;6.80;99.90;;;;;;5071742;28;20183;-74
2022/03/18 01:52:54;;;;;;;31.77;22.30;;;7.00;99.90;;;;;;5072905;28;20123;-75
2022/03/18 01:55:20;;;;;;;31.55;21.85;;;7.00;99.90;;;;;;5072534;28;20032;-75
2022/03/18 01:57:46;;;;;;;32.15;21.83;;;6.90;99.90;;;;;;5054444;28;20535;-74
2022/03/18 02:00:13;;;;;;;34.45;22.10;;;6.90;99.90;;;;;;5060409;28;20057;-74
2022/03/18 02:02:38;;;;;;;31.77;21.13;;;7.00;99.90;;;;;;5052135;28;20037;-74
2022/03/18 02:05:05;;;;;;;35.28;22.35;;;7.00;99.90;;;;;;5052883;28;20021;-74
2022/03/18 02:07:31;;;;;;;28.27;20.65;;;6.90;99.90;;;;;;5064830;28;20112;-74
2022/03/18 02:09:57;;;;;;;31.58;21.67;;;7.00;99.90;;;;;;5045613;28;20068;-74
2022/03/18 02:12:22;;;;;;;31.33;21.65;;;6.90;99.90;;;;;;5051791;28;20057;-74
2022/03/18 02:14:48;;;;;;;31.33;21.27;;;6.90;99.90;;;;;;5051882;28;20041;-74
2022/03/18 02:17:16;;;;;;;29.55;21.05;;;6.90;99.90;;;;;;5052971;28;20032;-74
2022/03/18 02:19:43;;;;;;;31.08;20.83;;;6.90;99.90;;;;;;5056035;28;20046;-74
2022/03/18 02:22:11;;;;;;;30.33;20.20;;;7.00;99.90;;;;;;5071940;28;20056;-74
2022/03/18 02:24:42;;;;;;;29.40;20.35;;;6.90;99.90;;;;;;5067693;28;20036;-74
2022/03/18 02:27:09;;;;;;;29.15;19.88;;;7.00;99.90;;;;;;5052635;28;20060;-74
2022/03/18 02:29:35;;;;;;;31.27;20.58;;;6.90;99.90;;;;;;5053608;28;20025;-74
2022/03/18 02:32:01;;;;;;;29.08;19.92;;;6.80;99.90;;;;;;5071957;28;20105;-74
2022/03/18 02:34:28;;;;;;;29.80;19.83;;;6.90;99.90;;;;;;5062643;28;20037;-74
2022/03/18 02:36:54;;;;;;;30.30;19.90;;;6.90;99.90;;;;;;5052309;28;20029;-75
2022/03/18 02:39:19;;;;;;;30.67;21.45;;;6.90;99.90;;;;;;5051250;28;20029;-75
2022/03/18 02:41:45;;;;;;;34.83;21.05;;;6.90;99.90;;;;;;5069858;28;20470;-74
2022/03/18 02:44:11;;;;;;;29.27;19.17;;;6.90;99.90;;;;;;5065227;28;20040;-74
2022/03/18 02:46:36;;;;;;;27.45;19.90;;;6.80;99.90;;;;;;5051147;28;20037;-73
2022/03/18 02:49:04;;;;;;;31.45;20.98;;;6.80;99.90;;;;;;5051325;28;20131;-75
2022/03/18 02:51:29;;;;;;;31.80;21.08;;;6.80;99.90;;;;;;5047885;28;20389;-75
2022/03/18 02:53:56;;;;;;;27.08;19.10;;;6.80;99.90;;;;;;5071703;28;20028;-75
2022/03/18 02:56:22;;;;;;;28.05;19.13;;;6.90;99.90;;;;;;5070931;28;20032;-76
2022/03/18 02:58:48;;;;;;;32.28;20.33;;;6.90;99.90;;;;;;5071732;28;20039;-75
2022/03/18 03:01:14;;;;;;;27.75;19.85;;;6.90;99.90;;;;;;5059064;28;20025;-74
2022/03/18 03:03:39;;;;;;;29.95;20.38;;;7.00;99.90;;;;;;5032957;28;20035;-75
2022/03/18 03:08:49;;;;;;;29.30;19.58;;;6.90;99.90;;;;;;5051273;28;20397;-75
2022/03/18 03:11:15;;;;;;;25.30;18.52;;;6.90;99.90;;;;;;5051630;28;20029;-74
2022/03/18 03:13:40;;;;;;;31.38;20.98;;;6.90;99.90;;;;;;5050546;28;20025;-74
2022/03/18 03:16:08;;;;;;;34.53;21.85;;;6.90;99.90;;;;;;5033826;28;20032;-75
2022/03/18 03:18:34;;;;;;;32.55;19.85;;;6.90;99.90;;;;;;5050701;28;20047;-75
2022/03/18 03:20:59;;;;;;;30.38;20.42;;;6.90;99.90;;;;;;5051619;28;20029;-74
2022/03/18 03:23:25;;;;;;;33.22;20.05;;;6.90;99.90;;;;;;5050827;28;20029;-75
2022/03/18 03:25:52;;;;;;;30.08;20.52;;;6.90;99.90;;;;;;5051572;28;20052;-74
2022/03/18 03:28:18;;;;;;;31.67;20.48;;;6.80;99.90;;;;;;5051137;28;20033;-76
2022/03/18 03:30:44;;;;;;;26.35;18.55;;;6.80;99.90;;;;;;5050747;28;20021;-74
2022/03/18 03:33:11;;;;;;;31.05;20.58;;;6.80;99.90;;;;;;5033328;28;20033;-74
2022/03/18 03:35:37;;;;;;;26.23;19.13;;;6.80;99.90;;;;;;5050407;28;20037;-74
2022/03/18 03:38:07;;;;;;;31.17;19.58;;;6.80;99.90;;;;;;5051445;28;20025;-74
2022/03/18 03:40:33;;;;;;;29.17;19.23;;;6.80;99.90;;;;;;5050634;28;20044;-74
2022/03/18 03:42:59;;;;;;;28.48;19.35;;;6.80;99.90;;;;;;5051367;28;20383;-75
2022/03/18 03:45:25;;;;;;;33.47;19.85;;;6.80;99.90;;;;;;5050433;28;20078;-75
2022/03/18 03:47:51;;;;;;;28.80;20.10;;;6.70;99.90;;;;;;5051409;28;20037;-74
2022/03/18 03:50:17;;;;;;;28.60;18.45;;;6.70;99.90;;;;;;5064253;28;20052;-75
2022/03/18 03:52:44;;;;;;;27.75;18.92;;;6.70;99.90;;;;;;5070229;28;20435;-75
2022/03/18 03:55:12;;;;;;;27.40;18.73;;;6.70;99.90;;;;;;5071442;28;20021;-74
2022/03/18 03:57:39;;;;;;;29.55;19.15;;;6.80;99.90;;;;;;5070465;28;20033;-74
2022/03/18 04:00:06;;;;;;;27.65;18.20;;;6.80;99.90;;;;;;5071288;28;20064;-74
2022/03/18 04:02:32;;;;;;;28.38;18.63;;;6.70;99.90;;;;;;5073763;28;20111;-74
2022/03/18 04:04:57;;;;;;;27.08;18.08;;;6.80;99.90;;;;;;5074987;28;20162;-74
2022/03/18 04:07:25;;;;;;;30.30;18.30;;;6.80;99.90;;;;;;5074025;28;20035;-75
2022/03/18 04:09:53;;;;;;;26.30;19.13;;;6.70;99.90;;;;;;5074762;28;20020;-74
2022/03/18 04:12:20;;;;;;;26.65;18.23;;;6.70;99.90;;;;;;5074775;28;20032;-76
2022/03/18 04:14:47;;;;;;;27.55;18.88;;;6.80;99.90;;;;;;5074344;28;20233;-74
2022/03/18 04:17:13;;;;;;;29.58;19.70;;;6.80;99.90;;;;;;5074784;28;20032;-75
2022/03/18 04:19:39;;;;;;;27.80;19.08;;;6.80;99.90;;;;;;5055983;28;20108;-74
2022/03/18 04:22:05;;;;;;;30.63;20.02;;;6.70;99.90;;;;;;5074847;28;20040;-75
2022/03/18 04:24:31;;;;;;;29.17;19.25;;;6.70;99.90;;;;;;5074482;28;20064;-76
2022/03/18 04:26:57;;;;;;;28.92;19.15;;;6.80;99.90;;;;;;5076831;28;20066;-74
2022/03/18 04:29:22;;;;;;;32.58;21.15;;;6.80;99.90;;;;;;5075930;28;20105;-76
2022/03/18 04:31:49;;;;;;;27.70;19.02;;;6.70;99.90;;;;;;5074095;28;20028;-75
2022/03/18 04:34:15;;;;;;;28.15;18.95;;;6.70;99.90;;;;;;5074735;28;20028;-75
2022/03/18 04:36:41;;;;;;;29.35;19.27;;;6.70;99.90;;;;;;5073668;28;20108;-75
2022/03/18 04:39:06;;;;;;;29.88;19.52;;;6.80;99.90;;;;;;5074206;28;20029;-74
2022/03/18 04:41:32;;;;;;;30.98;19.50;;;6.80;99.90;;;;;;5073689;28;20070;-75
2022/03/18 04:43:58;;;;;;;27.42;18.45;;;6.80;99.90;;;;;;5074801;28;20020;-75
2022/03/18 04:46:23;;;;;;;28.88;19.67;;;6.70;99.90;;;;;;5055144;28;20029;-76
2022/03/18 04:48:49;;;;;;;32.25;19.45;;;6.70;99.90;;;;;;5071163;28;20139;-75
2022/03/18 04:51:14;;;;;;;29.83;18.92;;;6.70;99.90;;;;;;5052921;28;20071;-75
2022/03/18 04:53:42;;;;;;;28.23;19.35;;;6.60;99.90;;;;;;5052317;28;20048;-76
2022/03/18 04:57:15;;;;;;;29.25;19.40;;;6.50;99.90;;;;;;5034764;28;20032;-76
2022/03/18 04:58:57;;;;;;;29.20;18.75;;;6.50;99.90;;;;;;5050855;28;20068;-75
2022/03/18 05:01:23;;;;;;;29.73;20.15;;;6.50;99.90;;;;;;5034378;28;20025;-76
2022/03/18 05:03:49;;;;;;;29.60;19.88;;;6.50;99.90;;;;;;5018154;28;20378;-75
2022/03/18 05:06:15;;;;;;;28.98;20.15;;;6.40;99.90;;;;;;5053877;28;20072;-75
2022/03/18 05:08:40;;;;;;;32.92;21.30;;;6.50;99.90;;;;;;5053053;28;20753;-75
2022/03/18 05:11:06;;;;;;;33.85;20.88;;;6.60;99.90;;;;;;5053612;28;20036;-76
2022/03/18 05:13:31;;;;;;;32.55;21.45;;;6.70;99.90;;;;;;5052096;28;20036;-75
2022/03/18 05:15:57;;;;;;;31.20;20.48;;;6.70;99.90;;;;;;5053455;28;20043;-75
2022/03/18 05:18:23;;;;;;;33.95;21.73;;;6.60;99.90;;;;;;5053383;28;20379;-76
2022/03/18 05:20:48;;;;;;;37.42;22.23;;;6.60;99.90;;;;;;5052814;28;20032;-75
2022/03/18 05:23:14;;;;;;;36.25;21.58;;;6.70;99.90;;;;;;5053926;28;20459;-75
2022/03/18 05:25:40;;;;;;;32.30;21.08;;;6.70;99.90;;;;;;5052677;28;20021;-75
2022/03/18 05:28:07;;;;;;;33.55;21.55;;;6.60;99.90;;;;;;5053417;28;20021;-75
2022/03/18 05:30:34;;;;;;;33.75;21.77;;;6.60;99.90;;;;;;5052501;28;20067;-76
2022/03/18 05:33:00;;;;;;;31.05;20.92;;;6.60;99.90;;;;;;5053264;28;20470;-75
2022/03/18 05:35:25;;;;;;;35.90;21.35;;;6.60;99.90;;;;;;5052674;28;20025;-76
2022/03/18 05:37:51;;;;;;;28.83;20.08;;;6.60;99.90;;;;;;5052169;28;20033;-74
2022/03/18 05:40:18;;;;;;;34.15;20.90;;;6.70;99.90;;;;;;5052741;28;20057;-74
2022/03/18 05:42:45;;;;;;;33.85;21.35;;;6.70;99.90;;;;;;5052027;28;20295;-74
2022/03/18 05:45:11;;;;;;;31.73;20.73;;;6.70;99.90;;;;;;5053279;28;20022;-75
2022/03/18 05:47:37;;;;;;;37.92;22.90;;;6.80;99.90;;;;;;5053174;28;20032;-75
2022/03/18 05:50:06;;;;;;;33.05;21.20;;;6.80;99.90;;;;;;5053446;28;20103;-72
2022/03/18 05:52:32;;;;;;;33.53;22.02;;;6.80;99.90;;;;;;5052909;28;20033;-72
2022/03/18 05:54:58;;;;;;;35.00;21.50;;;6.80;99.90;;;;;;5052944;28;20037;-73
2022/03/18 05:57:26;;;;;;;33.65;21.10;;;6.80;99.90;;;;;;5052907;28;20029;-76
2022/03/18 05:59:54;;;;;;;34.10;21.52;;;6.70;99.90;;;;;;5053112;28;20025;-74
2022/03/18 06:02:21;;;;;;;34.70;22.08;;;6.70;99.90;;;;;;5053789;28;20029;-74
2022/03/18 06:04:47;;;;;;;35.25;22.42;;;6.70;99.90;;;;;;5052112;28;20044;-73
2022/03/18 06:07:13;;;;;;;33.92;22.00;;;6.70;99.90;;;;;;5053198;28;20029;-74
2022/03/18 06:12:23;;;;;;;35.70;22.05;;;6.70;99.90;;;;;;5052377;28;20027;-76
2022/03/18 06:14:49;;;;;;;34.28;22.10;;;6.70;99.90;;;;;;5051843;28;20029;-74
2022/03/18 06:17:15;;;;;;;42.58;23.33;;;6.70;99.90;;;;;;5052447;28;20017;-75
2022/03/18 06:19:40;;;;;;;35.05;21.92;;;6.70;99.90;;;;;;5051707;28;20052;-74
2022/03/18 06:22:08;;;;;;;36.00;23.52;;;6.70;99.90;;;;;;5052589;28;20079;-72
2022/03/18 06:24:34;;;;;;;38.85;22.98;;;6.70;99.90;;;;;;5051703;28;20025;-75
2022/03/18 06:27:01;;;;;;;35.35;23.73;;;6.70;99.90;;;;;;5051813;28;20025;-73
2022/03/18 06:29:28;;;;;;;37.58;22.95;;;6.80;99.90;;;;;;5051656;28;20040;-74
2022/03/18 06:31:54;;;;;;;34.45;23.42;;;6.80;99.90;;;;;;5034483;28;20037;-73
2022/03/18 06:34:21;;;;;;;35.55;22.08;;;6.80;99.90;;;;;;5052159;28;20467;-73
2022/03/18 06:36:47;;;;;;;34.22;22.00;;;6.80;99.90;;;;;;5050916;28;20048;-74
2022/03/18 06:39:14;;;;;;;36.60;23.02;;;6.80;99.90;;;;;;5052381;28;20106;-74
2022/03/18 06:41:40;;;;;;;34.70;23.33;;;6.80;99.90;;;;;;5050976;28;20017;-72
2022/03/18 06:44:09;;;;;;;33.80;22.08;;;6.80;99.90;;;;;;5052024;28;20040;-74
2022/03/18 06:46:36;;;;;;;43.20;24.67;;;6.90;99.90;;;;;;5051078;28;20108;-74
2022/03/18 06:49:03;;;;;;;35.90;22.88;;;6.90;99.90;;;;;;5054396;28;20048;-78
2022/03/18 06:51:29;;;;;;;37.38;23.13;;;7.00;99.90;;;;;;5071448;28;20024;-74
2022/03/18 06:53:55;;;;;;;45.45;24.63;;;7.10;99.90;;;;;;5071502;28;20035;-71
2022/03/18 06:56:22;;;;;;;40.85;23.70;;;7.10;99.90;;;;;;5071669;28;20071;-67
2022/03/18 06:58:48;;;;;;;37.72;24.33;;;7.10;99.90;;;;;;5071309;28;20032;-70
2022/03/18 07:01:14;;;;;;;44.97;25.10;;;7.20;99.90;;;;;;5067494;28;20020;-72
2022/03/18 07:03:40;;;;;;;44.80;25.77;;;7.20;99.90;;;;;;5071338;28;20102;-72
2022/03/18 07:06:06;;;;;;;45.03;26.55;;;7.30;99.90;;;;;;5071555;28;20421;-73
2022/03/18 07:08:33;;;;;;;45.42;26.90;;;7.30;99.90;;;;;;5072981;28;20033;-72
2022/03/18 07:10:59;;;;;;;44.00;26.90;;;7.30;99.90;;;;;;5072975;28;20488;-73
2022/03/18 07:13:25;;;;;;;46.03;27.00;;;7.20;99.90;;;;;;5071342;28;20450;-73
2022/03/18 07:15:50;;;;;;;44.22;27.17;;;7.40;99.90;;;;;;5087473;28;20024;-74
2022/03/18 07:18:16;;;;;;;46.88;26.95;;;7.40;99.90;;;;;;5091684;28;20032;-73
2022/03/18 07:20:42;;;;;;;49.75;28.40;;;7.40;99.90;;;;;;5091064;28;20081;-79
2022/03/18 07:23:09;;;;;;;45.35;27.70;;;7.40;99.90;;;;;;5091769;28;20032;-81
2022/03/18 07:25:37;;;;;;;46.10;28.20;;;7.40;99.90;;;;;;5090994;28;20031;-82
2022/03/18 07:28:04;;;;;;;46.65;28.02;;;7.50;99.90;;;;;;5091885;28;20094;-78
2022/03/18 07:30:30;;;;;;;51.15;28.85;;;7.60;99.90;;;;;;5091061;28;20028;-74
2022/03/18 07:32:56;;;;;;;49.08;29.17;;;7.60;99.90;;;;;;5075065;28;20391;-74
2022/03/18 07:35:22;;;;;;;48.70;29.42;;;7.60;99.90;;;;;;5071511;28;20020;-76
2022/03/18 07:37:49;;;;;;;50.00;30.52;;;7.60;99.90;;;;;;5074003;28;20026;-76
2022/03/18 07:40:17;;;;;;;47.47;30.48;;;7.60;99.90;;;;;;5074709;28;20389;-76
2022/03/18 07:42:45;;;;;;;50.15;31.23;;;7.60;99.90;;;;;;5074365;28;20040;-75
2022/03/18 07:45:13;;;;;;;52.55;31.52;;;7.80;99.90;;;;;;5075577;28;20031;-77
2022/03/18 07:47:39;;;;;;;49.40;30.75;;;7.90;99.90;;;;;;5074542;28;20056;-76
2022/03/18 07:50:06;;;;;;;51.80;31.08;;;7.90;99.90;;;;;;5063413;28;20514;-74
2022/03/18 07:52:31;;;;;;;52.15;31.27;;;8.00;99.90;;;;;;5056876;28;20055;-75
2022/03/18 07:54:57;;;;;;;56.60;33.65;;;8.00;99.90;;;;;;5054413;28;20108;-74
2022/03/18 07:57:23;;;;;;;52.67;32.60;;;8.10;99.90;;;;;;5036504;28;20461;-74
2022/03/18 07:59:48;;;;;;;52.20;33.70;;;8.10;99.90;;;;;;5054101;28;20027;-74
2022/03/18 08:02:14;;;;;;;56.63;33.65;;;8.20;99.90;;;;;;5064287;28;20056;-74
2022/03/18 08:04:39;;;;;;;60.47;33.72;;;8.20;99.90;;;;;;5068919;28;20397;-74
2022/03/18 08:07:05;;;;;;;52.88;32.88;;;8.20;99.90;;;;;;5064136;28;20025;-74
2022/03/18 08:09:31;;;;;;;57.25;35.30;;;8.20;99.90;;;;;;5075775;28;20021;-74
2022/03/18 08:11:58;;;;;;;56.10;34.72;;;8.20;99.90;;;;;;5076065;28;20090;-74
2022/03/18 08:14:24;;;;;;;57.40;35.75;;;8.20;99.90;;;;;;5074377;28;20053;-75
2022/03/18 08:16:50;;;;;;;54.72;34.70;;;8.20;99.90;;;;;;5073905;28;20029;-74
2022/03/18 08:19:15;;;;;;;61.08;36.33;;;8.30;99.90;;;;;;5074404;28;20035;-75
2022/03/18 08:21:42;;;;;;;58.88;35.55;;;8.40;99.90;;;;;;5073643;28;20517;-75
2022/03/18 08:24:09;;;;;;;53.85;33.83;;;8.50;99.90;;;;;;5074604;28;20032;-75
2022/03/18 08:26:37;;;;;;;51.35;32.88;;;8.70;99.90;;;;;;5073864;28;20036;-74
2022/03/18 08:29:04;;;;;;;58.60;35.47;;;8.70;99.90;;;;;;5074136;28;20029;-75
2022/03/18 08:31:30;;;;;;;58.95;35.55;;;8.80;99.90;;;;;;5069379;28;20036;-74
2022/03/18 08:33:56;;;;;;;54.92;33.55;;;8.80;99.90;;;;;;5054264;28;20033;-74
2022/03/18 08:36:22;;;;;;;63.65;36.05;;;8.80;99.90;;;;;;5053969;28;20025;-75
2022/03/18 08:38:48;;;;;;;55.38;35.35;;;8.90;99.90;;;;;;5053489;28;20753;-75
2022/03/18 08:41:14;;;;;;;56.75;35.38;;;9.00;99.90;;;;;;5054478;28;20047;-75
2022/03/18 08:43:39;;;;;;;51.70;33.50;;;9.00;99.90;;;;;;5053692;28;20167;-75
2022/03/18 08:46:05;;;;;;;53.67;32.65;;;9.10;99.90;;;;;;5054175;28;20521;-75
2022/03/18 08:48:31;;;;;;;51.33;31.88;;;9.20;99.90;;;;;;5052348;28;20032;-74
2022/03/18 08:50:57;;;;;;;53.42;31.33;;;9.20;99.90;;;;;;5072810;28;20155;-75
2022/03/18 08:53:22;;;;;;;49.75;29.75;;;9.10;99.90;;;;;;5073922;28;20036;-75
2022/03/18 08:55:48;;;;;;;51.45;32.15;;;9.10;99.90;;;;;;5073230;28;20025;-75
2022/03/18 08:58:14;;;;;;;48.45;30.85;;;9.10;99.90;;;;;;5074206;28;20028;-75
2022/03/18 09:00:40;;;;;;;53.70;32.83;;;9.10;99.90;;;;;;5072981;28;20063;-75
2022/03/18 09:03:06;;;;;;;49.85;30.88;;;9.30;99.90;;;;;;5091499;28;20473;-74
2022/03/18 09:05:32;;;;;;;54.35;30.48;;;9.40;99.90;;;;;;5093260;28;20077;-74
2022/03/18 09:07:58;;;;;;;47.42;28.95;;;9.50;99.90;;;;;;5075710;28;20150;-75
2022/03/18 09:10:24;;;;;;;46.53;28.67;;;9.50;99.90;;;;;;5073847;28;20081;-75
2022/03/18 09:12:55;;;;;;;45.30;28.30;;;9.50;99.90;;;;;;5073009;28;20286;-75
2022/03/18 09:15:21;;;;;;;46.60;28.33;;;9.30;99.90;;;;;;5073592;28;20021;-74
2022/03/18 09:17:47;;;;;;;43.55;25.60;;;9.20;99.90;;;;;;5072885;28;20389;-74
2022/03/18 09:20:12;;;;;;;49.75;27.40;;;9.20;99.90;;;;;;5073799;28;20466;-74
2022/03/18 09:22:39;;;;;;;39.78;25.17;;;9.10;99.90;;;;;;5072916;28;20504;-74
2022/03/18 09:25:05;;;;;;;44.30;25.65;;;9.10;99.90;;;;;;5073260;28;20458;-74
2022/03/18 09:27:31;;;;;;;42.13;26.33;;;9.20;99.90;;;;;;5072980;28;20082;-74
2022/03/18 09:29:59;;;;;;;47.65;26.15;;;9.20;99.90;;;;;;5072887;28;20025;-75
2022/03/18 09:32:28;;;;;;;42.97;25.17;;;9.20;99.90;;;;;;5085338;28;20063;-75
2022/03/18 09:34:55;;;;;;;39.72;24.42;;;9.20;99.90;;;;;;5074783;28;20051;-74
2022/03/18 09:37:20;;;;;;;46.92;26.48;;;9.10;99.90;;;;;;5072954;28;20439;-74
2022/03/18 09:39:46;;;;;;;43.00;25.20;;;9.20;99.90;;;;;;5072736;28;20048;-74
2022/03/18 09:42:12;;;;;;;40.25;25.48;;;9.30;99.90;;;;;;5072977;28;20465;-74
2022/03/18 09:44:38;;;;;;;43.28;25.88;;;9.20;99.90;;;;;;5072280;28;20024;-74
2022/03/18 09:47:08;;;;;;;41.92;25.77;;;9.20;99.90;;;;;;5072959;28;20025;-74
2022/03/18 09:49:35;;;;;;;41.60;25.88;;;9.10;99.90;;;;;;5064933;28;20375;-74
2022/03/18 09:52:01;;;;;;;45.95;26.95;;;9.20;99.90;;;;;;5053046;28;20120;-74
2022/03/18 09:54:29;;;;;;;49.95;27.63;;;9.40;99.90;;;;;;5052771;28;20064;-74
2022/03/18 09:56:55;;;;;;;42.80;26.00;;;9.40;99.90;;;;;;5052279;28;20021;-74
2022/03/18 09:59:23;;;;;;;47.92;27.05;;;9.40;99.90;;;;;;5052575;28;20070;-75
2022/03/18 10:01:49;;;;;;;42.67;26.15;;;9.50;99.90;;;;;;5058813;28;20021;-73
2022/03/18 10:04:15;;;;;;;45.45;26.63;;;9.60;99.90;;;;;;5072981;28;20031;-75
2022/03/18 10:06:42;;;;;;;41.83;25.88;;;9.70;99.90;;;;;;5065377;28;20025;-74
2022/03/18 10:09:10;;;;;;;42.28;25.67;;;9.60;99.90;;;;;;5072571;28;20063;-75
2022/03/18 10:11:37;;;;;;;46.22;28.25;;;9.60;99.90;;;;;;5071914;28;20362;-74
2022/03/18 10:14:16;;;;;;;46.05;27.00;;;9.70;99.90;;;;;;5072501;28;20021;-74
2022/03/18 10:16:44;;;;;;;45.47;28.20;;;9.90;99.90;;;;;;5074614;28;20020;-74
2022/03/18 10:19:15;;;;;;;45.95;28.73;;;9.80;99.90;;;;;;5072394;28;20129;-74
2022/03/18 10:21:54;;;;;;;44.80;26.67;;;9.80;99.90;;;;;;5071691;28;20032;-75
2022/03/18 10:24:38;;;;;;;47.22;27.85;;;9.70;99.90;;;;;;5072308;28;20109;-75
2022/03/18 10:27:13;;;;;;;47.25;26.70;;;9.80;99.90;;;;;;5054419;28;20377;-74
2022/03/18 10:29:43;;;;;;;43.67;26.20;;;9.90;99.90;;;;;;5071356;28;20108;-73
2022/03/18 10:32:09;;;;;;;41.63;27.60;;;10.00;99.90;;;;;;5062382;28;20072;-74
2022/03/18 10:37:25;;;;;;;44.72;27.70;;;10.20;99.90;;;;;;5051084;28;20052;-74
2022/03/18 10:39:58;;;;;;;45.33;27.38;;;10.40;99.90;;;;;;5051199;28;20044;-74
2022/03/18 10:42:24;;;;;;;43.55;28.55;;;10.50;99.90;;;;;;5052376;28;20420;-75
2022/03/18 10:44:53;;;;;;;43.63;26.45;;;10.50;99.90;;;;;;5051147;28;20021;-73
2022/03/18 10:47:38;;;;;;;47.50;27.48;;;10.50;99.90;;;;;;5052119;28;20029;-73
2022/03/18 10:50:10;;;;;;;44.47;26.55;;;10.60;99.90;;;;;;5051523;28;20051;-74
2022/03/18 10:52:37;;;;;;;45.30;28.10;;;10.80;99.90;;;;;;5051393;28;20090;-73
2022/03/18 10:55:26;;;;;;;45.97;27.90;;;10.80;99.90;;;;;;5051389;28;20025;-74
2022/03/18 10:57:53;;;;;;;45.67;27.92;;;11.00;99.90;;;;;;5038529;28;20041;-75
2022/03/18 11:00:19;;;;;;;45.13;27.90;;;11.20;99.90;;;;;;5050702;28;20475;-75
2022/03/18 11:03:09;;;;;;;44.47;26.52;;;11.60;99.90;;;;;;5050311;28;20033;-74
2022/03/18 11:05:37;;;;;;;44.38;28.38;;;11.60;99.90;;;;;;5051264;28;20094;-75
2022/03/18 11:08:05;;;;;;;44.60;27.77;;;11.80;99.90;;;;;;5052189;28;20057;-75
2022/03/18 11:13:21;;;;;;;46.75;27.33;;;11.90;99.90;;;;;;5052658;28;20497;-75
2022/03/18 11:15:49;;;;;;;45.08;27.63;;;11.50;99.90;;;;;;5050915;28;20116;-74
2022/03/18 11:18:15;;;;;;;45.30;28.52;;;11.70;99.90;;;;;;5051362;28;20029;-74
2022/03/18 11:20:43;;;;;;;48.65;28.27;;;11.80;99.90;;;;;;5050855;28;20032;-74
2022/03/18 11:23:20;;;;;;;48.22;28.65;;;11.80;99.90;;;;;;5051536;28;20029;-73
2022/03/18 11:25:54;;;;;;;41.85;28.63;;;11.80;99.90;;;;;;5050850;28;20102;-73
2022/03/18 11:28:21;;;;;;;43.05;28.80;;;11.70;99.90;;;;;;5033842;28;20488;-75
2022/03/18 11:31:00;;;;;;;41.75;26.40;;;11.70;99.90;;;;;;5050574;28;20037;-74
2022/03/18 11:33:26;;;;;;;44.45;27.27;;;11.70;99.90;;;;;;5031122;28;20082;-74
2022/03/18 11:35:52;;;;;;;44.40;27.10;;;11.70;99.90;;;;;;5030976;28;20049;-73
2022/03/18 11:38:19;;;;;;;45.25;28.25;;;11.60;99.90;;;;;;5051452;28;20029;-74
2022/03/18 11:40:58;;;;;;;44.13;27.92;;;11.50;99.90;;;;;;5050512;28;20032;-73
2022/03/18 11:43:42;;;;;;;44.00;28.58;;;11.40;99.90;;;;;;5051511;28;20056;-74
2022/03/18 11:46:17;;;;;;;42.53;26.83;;;11.30;99.90;;;;;;5051324;28;20113;-73
2022/03/18 11:48:46;;;;;;;39.28;26.27;;;11.50;99.90;;;;;;5031485;28;20462;-73
2022/03/18 11:51:42;;;;;;;43.83;27.38;;;11.30;99.90;;;;;;5051190;28;20041;-73
2022/03/18 11:54:16;;;;;;;40.90;27.95;;;11.40;99.90;;;;;;5042006;28;20084;-74
2022/03/18 11:56:45;;;;;;;40.03;27.02;;;11.50;99.90;;;;;;5049783;28;20094;-73
2022/03/18 11:59:29;;;;;;;41.65;27.95;;;11.50;99.90;;;;;;5050344;28;20032;-74
2022/03/18 12:02:01;;;;;;;42.63;27.05;;;11.60;99.90;;;;;;5057008;28;20036;-74
2022/03/18 12:04:33;;;;;;;42.28;27.00;;;11.80;99.90;;;;;;5070391;28;20025;-74
2022/03/18 12:07:11;;;;;;;40.67;27.83;;;12.00;99.90;;;;;;5059922;28;20031;-74
2022/03/18 12:09:53;;;;;;;41.08;27.27;;;12.10;99.90;;;;;;5050883;28;20051;-75
2022/03/18 12:12:33;;;;;;;39.03;27.63;;;12.20;99.90;;;;;;5050453;28;20474;-76
2022/03/18 12:15:05;;;;;;;44.00;28.27;;;12.30;99.50;;;;;;5052059;28;20025;-78
2022/03/18 12:17:39;;;;;;;42.28;27.02;;;12.40;99.90;;;;;;5049256;28;20040;-78
2022/03/18 12:20:06;;;;;;;41.30;27.30;;;12.50;99.20;;;;;;5056392;28;20061;-82
2022/03/18 12:22:37;;;;;;;45.30;29.08;;;12.50;98.90;;;;;;5050410;28;20036;-72
2022/03/18 12:25:05;;;;;;;43.63;29.20;;;12.20;99.30;;;;;;5052782;28;20047;-72
2022/03/18 12:27:36;;;;;;;47.80;29.48;;;12.00;99.70;;;;;;5050768;28;20033;-76
2022/03/18 12:30:11;;;;;;;41.95;28.80;;;12.00;99.90;;;;;;5052701;28;20029;-72
2022/03/18 12:32:48;;;;;;;45.03;28.52;;;11.90;99.90;;;;;;5052002;28;20036;-72
2022/03/18 12:35:16;;;;;;;45.17;30.15;;;11.90;99.90;;;;;;5053722;28;20445;-79
2022/03/18 12:37:45;;;;;;;41.30;28.15;;;11.80;99.90;;;;;;5052323;28;20120;-72
2022/03/18 12:40:13;;;;;;;42.53;29.98;;;11.80;99.90;;;;;;5053345;28;20112;-73
2022/03/18 12:42:56;;;;;;;44.80;29.80;;;11.80;99.90;;;;;;5053386;28;20028;-73
2022/03/18 12:45:36;;;;;;;45.60;29.92;;;12.00;99.90;;;;;;5053767;28;20108;-73
2022/03/18 12:48:07;;;;;;;43.03;27.63;;;12.10;99.70;;;;;;5034496;28;20065;-73
2022/03/18 12:50:42;;;;;;;43.70;29.67;;;12.30;98.80;;;;;;5052695;28;20504;-72
2022/03/18 12:53:20;;;;;;;44.03;28.42;;;12.70;98.60;;;;;;5052681;28;20033;-72
2022/03/18 12:55:53;;;;;;;43.50;28.73;;;13.20;97.50;;;;;;5052390;28;20025;-72